Time;durP1;ratioP1;P1;durP2;ratioP2;P2;SDS_P1;SDS_P2;PMS_P1;PMS_P2;Temp;Humidity;BMP_temperature;BMP_pressure;BME280_temperature;BME280_humidity;BME280_pressure;Samples;Min_cycle;Max_cycle;Signal;HPM_P1;HPM_P2
2022/08/01 00:00:25;;;;;;;;;;;;;;;18.07;100.00;101696.31;5054502;28;19924;-59
2022/08/01 00:02:50;;;;;;;;;;;;;;;18.09;100.00;101695.25;5054648;28;19920;-59
2022/08/01 00:05:15;;;;;;;;;;;;;;;18.13;100.00;101693.25;5054855;28;20332;-59
2022/08/01 00:07:41;;;;;;;;;;;;;;;18.16;100.00;101704.63;5054828;28;19928;-56
2022/08/01 00:10:08;;;;;;;;;;;;;;;18.14;100.00;101693.13;5054791;28;19916;-59
2022/08/01 00:12:33;;;;;;;;;;;;;;;18.17;100.00;101700.13;5019545;28;19917;-59
2022/08/01 00:14:59;;;;;;;;;;;;;;;18.17;100.00;101701.00;5054461;28;19913;-59
2022/08/01 00:17:24;;;;;;;;;;;;;;;18.18;100.00;101697.38;5054960;28;19956;-59
2022/08/01 00:19:49;;;;;;;;;;;;;;;18.20;100.00;101701.75;5054716;28;19924;-59
2022/08/01 00:22:15;;;;;;;;;;;;;;;18.21;100.00;101699.00;5054134;28;20426;-59
2022/08/01 00:24:40;;;;;;;;;;;;;;;18.20;100.00;101702.63;5054045;28;19967;-58
2022/08/01 00:27:05;;;;;;;;;;;;;;;18.21;100.00;101703.47;5054532;28;19928;-58
2022/08/01 00:29:30;;;;;;;;;;;;;;;18.22;100.00;101705.19;5036566;28;19916;-58
2022/08/01 00:31:55;;;;;;;;;;;;;;;18.21;100.00;101708.84;5053684;28;19923;-58
2022/08/01 00:34:21;;;;;;;;;;;;;;;18.19;100.00;101700.91;5036029;28;19921;-58
2022/08/01 00:36:46;;;;;;;;;;;;;;;18.17;100.00;101706.38;5036205;28;19921;-57
2022/08/01 00:39:11;;;;;;;;;;;;;;;18.17;100.00;101713.53;5054291;28;19927;-58
2022/08/01 00:41:37;;;;;;;;;;;;;;;18.13;100.00;101704.84;5053925;28;20400;-58
2022/08/01 00:44:03;;;;;;;;;;;;;;;18.10;100.00;101705.00;5053562;28;19917;-58
2022/08/01 00:46:28;;;;;;;;;;;;;;;18.10;100.00;101701.50;5054144;28;20423;-57
2022/08/01 00:48:54;;;;;;;;;;;;;;;18.07;100.00;101707.03;5054364;28;19913;-58
2022/08/01 00:51:20;;;;;;;;;;;;;;;18.05;100.00;101698.22;5054003;28;20384;-58
2022/08/01 00:53:45;;;;;;;;;;;;;;;18.00;100.00;101698.50;5053637;28;19924;-58
2022/08/01 00:56:10;;;;;;;;;;;;;;;17.95;100.00;101705.97;5052924;28;19932;-58
2022/08/01 00:58:36;;;;;;;;;;;;;;;17.92;100.00;101707.00;5053626;28;19921;-58
2022/08/01 01:01:02;;;;;;;;;;;;;;;17.93;100.00;101713.22;5053530;28;19942;-58
2022/08/01 01:03:27;;;;;;;;;;;;;;;17.91;100.00;101701.75;5053272;28;20011;-58
2022/08/01 01:06:01;;;;;;;;;;;;;;;17.90;100.00;101700.00;5053111;28;19924;-58
2022/08/01 01:08:29;;;;;;;;;;;;;;;17.88;100.00;101699.22;5053624;28;19924;-58
2022/08/01 01:11:03;;;;;;;;;;;;;;;17.89;100.00;101700.97;5053513;28;20265;-58
2022/08/01 01:13:34;;;;;;;;;;;;;;;17.88;100.00;101697.44;5053377;28;19919;-58
2022/08/01 01:16:01;;;;;;;;;;;;;;;17.85;100.00;101689.56;5052714;28;19944;-58
2022/08/01 01:18:35;;;;;;;;;;;;;;;17.85;100.00;101698.50;5053537;28;19916;-58
2022/08/01 01:21:13;;;;;;;;;;;;;;;17.85;100.00;101686.88;5051955;28;19957;-58
2022/08/01 01:23:54;;;;;;;;;;;;;;;17.83;100.00;101695.03;5043243;28;19917;-58
2022/08/01 01:26:36;;;;;;;;;;;;;;;17.82;100.00;101693.31;5052703;28;19924;-58
2022/08/01 01:29:24;;;;;;;;;;;;;;;17.82;100.00;101700.50;5050655;28;19917;-58
2022/08/01 01:31:54;;;;;;;;;;;;;;;17.76;100.00;101700.88;5007439;28;19919;-58
2022/08/01 01:34:21;;;;;;;;;;;;;;;17.74;100.00;101698.28;5035701;28;19927;-58
2022/08/01 01:36:47;;;;;;;;;;;;;;;17.71;100.00;101702.97;5052356;28;19928;-58
2022/08/01 01:39:15;;;;;;;;;;;;;;;17.68;100.00;101709.38;5034879;28;19916;-59
2022/08/01 01:41:42;;;;;;;;;;;;;;;17.65;100.00;101704.22;5052877;28;19959;-59
2022/08/01 01:44:08;;;;;;;;;;;;;;;17.60;100.00;101704.47;5052618;28;19913;-59
2022/08/01 01:46:35;;;;;;;;;;;;;;;17.61;100.00;101708.00;5052624;28;20368;-58
2022/08/01 01:49:01;;;;;;;;;;;;;;;17.58;100.00;101716.25;5052622;28;20388;-58
2022/08/01 01:51:27;;;;;;;;;;;;;;;17.57;100.00;101711.84;5052893;28;19918;-58
2022/08/01 01:53:54;;;;;;;;;;;;;;;17.58;100.00;101711.75;5052631;28;19917;-58
2022/08/01 01:56:20;;;;;;;;;;;;;;;17.59;100.00;101712.63;5051508;28;19921;-59
2022/08/01 01:58:48;;;;;;;;;;;;;;;17.57;100.00;101710.03;5052472;28;20000;-57
2022/08/01 02:01:14;;;;;;;;;;;;;;;17.55;100.00;101706.59;5052710;28;19936;-58
2022/08/01 02:03:41;;;;;;;;;;;;;;;17.54;100.00;101704.84;5051785;28;20019;-58
2022/08/01 02:06:07;;;;;;;;;;;;;;;17.53;100.00;101711.16;5052539;28;19917;-58
2022/08/01 02:08:33;;;;;;;;;;;;;;;17.54;100.00;101710.22;5034457;28;20257;-58
2022/08/01 02:11:18;;;;;;;;;;;;;;;17.53;100.00;101711.16;5052415;28;20291;-58
2022/08/01 02:13:44;;;;;;;;;;;;;;;17.49;100.00;101706.94;5051820;28;20296;-58
2022/08/01 02:16:12;;;;;;;;;;;;;;;17.46;100.00;101709.81;5052396;28;19924;-58
2022/08/01 02:18:38;;;;;;;;;;;;;;;17.42;100.00;101706.47;5052509;28;19924;-58
2022/08/01 02:21:05;;;;;;;;;;;;;;;17.36;100.00;101707.66;5052145;28;19921;-58
2022/08/01 02:23:34;;;;;;;;;;;;;;;17.35;100.00;101714.00;5052229;28;19951;-59
2022/08/01 02:26:00;;;;;;;;;;;;;;;17.32;100.00;101711.50;5034103;28;19920;-58
2022/08/01 02:28:30;;;;;;;;;;;;;;;17.30;100.00;101713.41;5052288;28;19921;-57
2022/08/01 02:30:59;;;;;;;;;;;;;;;17.31;100.00;101716.94;5052056;28;19982;-59
2022/08/01 02:33:27;;;;;;;;;;;;;;;17.33;100.00;101717.72;5034466;28;20015;-58
2022/08/01 02:35:56;;;;;;;;;;;;;;;17.34;100.00;101712.28;5034227;28;20442;-58
2022/08/01 02:38:23;;;;;;;;;;;;;;;17.34;100.00;101714.06;5052297;28;19921;-58
2022/08/01 02:40:50;;;;;;;;;;;;;;;17.31;100.00;101707.09;5051737;28;20004;-59
2022/08/01 02:43:17;;;;;;;;;;;;;;;17.30;100.00;101715.22;5034046;28;19924;-57
2022/08/01 02:45:44;;;;;;;;;;;;;;;17.27;100.00;101708.22;5051656;28;20003;-57
2022/08/01 02:48:11;;;;;;;;;;;;;;;17.25;100.00;101723.53;5052261;28;19967;-58
2022/08/01 02:50:38;;;;;;;;;;;;;;;17.22;100.00;101722.84;5051945;28;19913;-58
2022/08/01 02:53:06;;;;;;;;;;;;;;;17.22;100.00;101717.50;5051787;28;19959;-59
2022/08/01 02:55:32;;;;;;;;;;;;;;;17.20;100.00;101717.59;5051814;28;19921;-58
2022/08/01 02:57:58;;;;;;;;;;;;;;;17.19;100.00;101715.88;5056315;28;19921;-57
2022/08/01 03:00:25;;;;;;;;;;;;;;;17.17;100.00;101707.06;5055919;28;19932;-58
2022/08/01 03:02:51;;;;;;;;;;;;;;;17.20;100.00;101707.75;5055412;28;19920;-59
2022/08/01 03:05:17;;;;;;;;;;;;;;;17.20;100.00;101710.41;5055680;28;19932;-58
2022/08/01 03:07:43;;;;;;;;;;;;;;;17.23;100.00;101708.53;5055844;28;19916;-58
2022/08/01 03:10:09;;;;;;;;;;;;;;;17.20;100.00;101720.28;5055822;28;19917;-58
2022/08/01 03:12:35;;;;;;;;;;;;;;;17.20;100.00;101722.94;5055481;28;19938;-58
2022/08/01 03:15:02;;;;;;;;;;;;;;;17.20;100.00;101721.13;5055626;28;19924;-58
2022/08/01 03:17:28;;;;;;;;;;;;;;;17.23;100.00;101719.22;5037345;28;19917;-58
2022/08/01 03:19:54;;;;;;;;;;;;;;;17.24;100.00;101721.81;5055914;28;19924;-58
2022/08/01 03:22:21;;;;;;;;;;;;;;;17.27;100.00;101732.31;5055439;28;19913;-57
2022/08/01 03:24:49;;;;;;;;;;;;;;;17.30;100.00;101731.28;5055371;28;20003;-58
2022/08/01 03:27:15;;;;;;;;;;;;;;;17.35;100.00;101724.72;5055286;28;19999;-57
2022/08/01 03:29:41;;;;;;;;;;;;;;;17.37;100.00;101721.94;5055594;28;20009;-59
2022/08/01 03:32:06;;;;;;;;;;;;;;;17.40;100.00;101723.56;5055582;28;20039;-59
2022/08/01 03:34:32;;;;;;;;;;;;;;;17.39;100.00;101730.72;5037247;28;19917;-57
2022/08/01 03:37:06;;;;;;;;;;;;;;;17.39;100.00;101727.19;5055049;28;19921;-57
2022/08/01 03:39:34;;;;;;;;;;;;;;;17.38;100.00;101723.66;5055208;28;19935;-58
2022/08/01 03:42:04;;;;;;;;;;;;;;;17.35;100.00;101722.03;5055348;28;19923;-59
2022/08/01 03:44:31;;;;;;;;;;;;;;;17.33;100.00;101726.59;5054803;28;19913;-58
2022/08/01 03:47:02;;;;;;;;;;;;;;;17.33;100.00;101725.75;5054857;28;19921;-58
2022/08/01 03:49:30;;;;;;;;;;;;;;;17.32;100.00;101727.56;5053580;28;19920;-59
2022/08/01 03:51:56;;;;;;;;;;;;;;;17.32;100.00;101724.88;5054004;28;19917;-58
2022/08/01 03:54:23;;;;;;;;;;;;;;;17.35;100.00;101719.34;5054545;28;19955;-58
2022/08/01 03:56:49;;;;;;;;;;;;;;;17.38;100.00;101722.78;5054854;28;19925;-58
2022/08/01 03:59:16;;;;;;;;;;;;;;;17.38;100.00;101721.00;5053084;28;20424;-58
2022/08/01 04:01:42;;;;;;;;;;;;;;;17.34;100.00;101714.94;5054259;28;19999;-59
2022/08/01 04:04:08;;;;;;;;;;;;;;;17.31;100.00;101728.50;5054482;28;19924;-59
2022/08/01 04:06:36;;;;;;;;;;;;;;;17.26;100.00;101725.25;5052933;28;19928;-59
2022/08/01 04:09:02;;;;;;;;;;;;;;;17.25;100.00;101722.66;5034601;28;19932;-59
2022/08/01 04:11:27;;;;;;;;;;;;;;;17.30;100.00;101723.25;5035919;28;19917;-59
2022/08/01 04:13:53;;;;;;;;;;;;;;;17.35;100.00;101730.06;5037016;28;19917;-59
2022/08/01 04:16:18;;;;;;;;;;;;;;;17.40;100.00;101726.25;5054311;28;19921;-59
2022/08/01 04:18:44;;;;;;;;;;;;;;;17.43;100.00;101734.97;5054316;28;20005;-59
2022/08/01 04:21:09;;;;;;;;;;;;;;;17.50;100.00;101728.28;5054066;28;20273;-59
2022/08/01 04:23:34;;;;;;;;;;;;;;;17.55;100.00;101735.19;5036738;28;19917;-58
2022/08/01 04:26:01;;;;;;;;;;;;;;;17.59;100.00;101732.22;5054470;28;19943;-59
2022/08/01 04:28:27;;;;;;;;;;;;;;;17.61;100.00;101737.47;5054135;28;19923;-59
2022/08/01 04:30:54;;;;;;;;;;;;;;;17.62;100.00;101734.72;5054562;28;19955;-58
2022/08/01 04:33:20;;;;;;;;;;;;;;;17.67;100.00;101734.44;5036425;28;19916;-58
2022/08/01 04:35:46;;;;;;;;;;;;;;;17.69;100.00;101736.06;5054227;28;19947;-58
2022/08/01 04:38:14;;;;;;;;;;;;;;;17.77;100.00;101732.91;5036058;28;19927;-58
2022/08/01 04:40:40;;;;;;;;;;;;;;;17.89;100.00;101738.47;5035856;28;19916;-58
2022/08/01 04:43:05;;;;;;;;;;;;;;;17.95;100.00;101743.50;5053591;28;19967;-58
2022/08/01 04:45:31;;;;;;;;;;;;;;;17.98;100.00;101736.13;5036060;28;19920;-58
2022/08/01 04:47:56;;;;;;;;;;;;;;;18.06;100.00;101735.66;5035410;28;20332;-58
2022/08/01 04:50:22;;;;;;;;;;;;;;;18.07;100.00;101739.19;5052478;28;19923;-58
2022/08/01 04:52:47;;;;;;;;;;;;;;;18.12;100.00;101735.28;5050082;28;19971;-59
2022/08/01 04:55:12;;;;;;;;;;;;;;;18.06;100.00;101746.38;5053316;28;19924;-59
2022/08/01 04:57:40;;;;;;;;;;;;;;;18.10;100.00;101739.84;5045014;28;19928;-59
2022/08/01 05:00:06;;;;;;;;;;;;;;;18.14;100.00;101748.56;5051484;28;19917;-59
2022/08/01 05:02:32;;;;;;;;;;;;;;;18.18;100.00;101744.75;5051998;28;19962;-59
2022/08/01 05:04:57;;;;;;;;;;;;;;;18.19;100.00;101746.47;5053472;28;19944;-59
2022/08/01 05:07:22;;;;;;;;;;;;;;;18.20;100.00;101747.31;5042854;28;19929;-59
2022/08/01 05:09:47;;;;;;;;;;;;;;;18.22;100.00;101750.78;5033439;28;19944;-59
2022/08/01 05:12:13;;;;;;;;;;;;;;;18.25;100.00;101750.56;5034621;28;19958;-58
2022/08/01 05:14:38;;;;;;;;;;;;;;;18.26;100.00;101746.94;5053507;28;19948;-59
2022/08/01 05:17:05;;;;;;;;;;;;;;;18.22;100.00;101753.47;5052611;28;19921;-59
2022/08/01 05:19:34;;;;;;;;;;;;;;;18.20;100.00;101740.16;5052488;28;19916;-58
2022/08/01 05:22:04;;;;;;;;;;;;;;;18.27;100.00;101754.03;5048017;28;19935;-58
2022/08/01 05:24:30;;;;;;;;;;;;;;;18.26;100.00;101738.91;5052771;28;19920;-56
2022/08/01 05:26:55;;;;;;;;;;;;;;;18.26;100.00;101749.63;5033992;28;19917;-59
2022/08/01 05:29:21;;;;;;;;;;;;;;;18.17;100.00;101751.94;5053068;28;19962;-58
2022/08/01 05:31:46;;;;;;;;;;;;;;;18.14;100.00;101746.75;5052806;28;19960;-58
2022/08/01 05:34:11;;;;;;;;;;;;;;;18.16;100.00;101744.00;5052475;28;19943;-58
2022/08/01 05:36:37;;;;;;;;;;;;;;;18.15;100.00;101756.50;5052815;28;20292;-59
2022/08/01 05:39:03;;;;;;;;;;;;;;;18.14;100.00;101752.09;5052764;28;19927;-59
2022/08/01 05:41:28;;;;;;;;;;;;;;;18.12;100.00;101755.84;5052921;28;19920;-58
2022/08/01 05:43:53;;;;;;;;;;;;;;;18.06;100.00;101764.28;5034365;28;20015;-57
2022/08/01 05:46:18;;;;;;;;;;;;;;;18.03;100.00;101757.31;5052631;28;19921;-59
2022/08/01 05:48:43;;;;;;;;;;;;;;;18.06;100.00;101773.19;5052369;28;19936;-59
2022/08/01 05:51:09;;;;;;;;;;;;;;;18.11;100.00;101773.75;5052549;28;19924;-59
2022/08/01 05:53:34;;;;;;;;;;;;;;;18.04;100.00;101782.28;5052227;28;19913;-58
2022/08/01 05:56:01;;;;;;;;;;;;;;;17.97;100.00;101784.47;5052548;28;20041;-59
2022/08/01 05:58:26;;;;;;;;;;;;;;;18.01;100.00;101781.50;5052292;28;19921;-59
2022/08/01 06:00:51;;;;;;;;;;;;;;;18.04;100.00;101777.75;5052110;28;20261;-58
2022/08/01 06:03:16;;;;;;;;;;;;;;;18.03;100.00;101778.75;5050482;28;19927;-59
2022/08/01 06:05:42;;;;;;;;;;;;;;;18.05;100.00;101784.84;5034033;28;20403;-59
2022/08/01 06:08:07;;;;;;;;;;;;;;;18.06;100.00;101785.72;5052253;28;19928;-59
2022/08/01 06:10:32;;;;;;;;;;;;;;;18.07;100.00;101788.31;5028330;28;20305;-59
2022/08/01 06:12:57;;;;;;;;;;;;;;;18.07;100.00;101782.06;5049574;28;20015;-57
2022/08/01 06:15:23;;;;;;;;;;;;;;;18.09;100.00;101790.88;5055656;28;19967;-58
2022/08/01 06:17:48;;;;;;;;;;;;;;;18.16;100.00;101790.41;5052113;28;19960;-58
2022/08/01 06:20:13;;;;;;;;;;;;;;;18.17;100.00;101794.81;5034180;28;19927;-59
2022/08/01 06:22:38;;;;;;;;;;;;;;;18.15;100.00;101803.91;5051910;28;20360;-58
2022/08/01 06:25:04;;;;;;;;;;;;;;;18.13;100.00;101798.66;5051699;28;19924;-59
2022/08/01 06:27:29;;;;;;;;;;;;;;;18.18;100.00;101798.34;5034171;28;19925;-59
2022/08/01 06:29:54;;;;;;;;;;;;;;;18.16;100.00;101800.28;5050405;28;19917;-59
2022/08/01 06:32:24;;;;;;;;;;;;;;;18.06;100.00;101799.97;5032304;28;20000;-58
2022/08/01 06:34:49;;;;;;;;;;;;;;;18.03;100.00;101802.84;5032873;28;20391;-58
2022/08/01 06:37:15;;;;;;;;;;;;;;;17.99;100.00;101798.63;5051101;28;19917;-58
2022/08/01 06:39:40;;;;;;;;;;;;;;;17.99;100.00;101809.34;5051107;28;19969;-58
2022/08/01 06:42:06;;;;;;;;;;;;;;;17.91;100.00;101806.25;5051164;28;19985;-59
2022/08/01 06:44:31;;;;;;;;;;;;;;;17.77;100.00;101812.44;5050917;28;19912;-58
2022/08/01 06:46:58;;;;;;;;;;;;;;;17.70;100.00;101811.94;5050797;28;19920;-58
2022/08/01 06:49:23;;;;;;;;;;;;;;;17.60;100.00;101810.75;5051397;28;19917;-59
2022/08/01 06:51:49;;;;;;;;;;;;;;;17.50;100.00;101818.47;5033786;28;19913;-59
2022/08/01 06:54:14;;;;;;;;;;;;;;;17.46;100.00;101814.25;5033129;28;20376;-58
2022/08/01 06:56:39;;;;;;;;;;;;;;;17.44;100.00;101819.69;5050123;28;20003;-58
2022/08/01 06:59:04;;;;;;;;;;;;;;;17.44;100.00;101819.69;5050520;28;19927;-59
2022/08/01 07:01:29;;;;;;;;;;;;;;;17.41;100.00;101819.88;5050864;28;19951;-59
2022/08/01 07:03:55;;;;;;;;;;;;;;;17.47;100.00;101826.69;5050173;28;19959;-59
2022/08/01 07:06:23;;;;;;;;;;;;;;;17.48;100.00;101831.94;5051562;28;19912;-59
2022/08/01 07:08:49;;;;;;;;;;;;;;;17.59;100.00;101828.63;5032876;28;20257;-59
2022/08/01 07:11:14;;;;;;;;;;;;;;;17.62;100.00;101833.81;5050840;28;19947;-58
2022/08/01 07:13:39;;;;;;;;;;;;;;;17.74;100.00;101829.56;5051086;28;19976;-51
2022/08/01 07:16:04;;;;;;;;;;;;;;;17.83;100.00;101830.81;5050797;28;20364;-58
2022/08/01 07:18:30;;;;;;;;;;;;;;;17.94;100.00;101840.91;5050918;28;19921;-58
2022/08/01 07:20:55;;;;;;;;;;;;;;;17.97;100.00;101844.28;5051367;28;20437;-50
2022/08/01 07:23:20;;;;;;;;;;;;;;;18.02;100.00;101838.66;5049986;28;20016;-58
2022/08/01 07:25:46;;;;;;;;;;;;;;;18.09;100.00;101844.50;5033418;28;19920;-58
2022/08/01 07:28:11;;;;;;;;;;;;;;;18.30;100.00;101853.03;5050949;28;20433;-58
2022/08/01 07:30:36;;;;;;;;;;;;;;;18.41;100.00;101849.69;5049601;28;19921;-58
2022/08/01 07:33:02;;;;;;;;;;;;;;;18.58;100.00;101852.19;5033126;28;19927;-59
2022/08/01 07:35:27;;;;;;;;;;;;;;;18.55;100.00;101865.78;5050415;28;19917;-59
2022/08/01 07:37:53;;;;;;;;;;;;;;;18.49;100.00;101860.81;5050857;28;19917;-59
2022/08/01 07:40:19;;;;;;;;;;;;;;;18.47;100.00;101868.09;5032792;28;19927;-58
2022/08/01 07:42:44;;;;;;;;;;;;;;;18.54;100.00;101863.22;5052937;28;20151;-58
2022/08/01 07:45:10;;;;;;;;;;;;;;;18.57;100.00;101869.25;5050607;28;20007;-58
2022/08/01 07:47:36;;;;;;;;;;;;;;;18.58;100.00;101865.63;5050602;28;20054;-58
2022/08/01 07:50:02;;;;;;;;;;;;;;;18.63;100.00;101871.56;5049191;28;20444;-58
2022/08/01 07:52:27;;;;;;;;;;;;;;;18.66;100.00;101881.22;5053528;28;19913;-58
2022/08/01 07:54:53;;;;;;;;;;;;;;;18.74;100.00;101876.22;5054217;28;20438;-59
2022/08/01 07:57:18;;;;;;;;;;;;;;;18.88;100.00;101880.72;5054538;28;20024;-59
2022/08/01 07:59:43;;;;;;;;;;;;;;;18.92;100.00;101870.69;5047398;28;19961;-59
2022/08/01 08:02:08;;;;;;;;;;;;;;;19.02;100.00;101873.66;5050876;28;19921;-59
2022/08/01 08:04:34;;;;;;;;;;;;;;;19.20;100.00;101867.09;5052489;28;20016;-59
2022/08/01 08:06:59;;;;;;;;;;;;;;;19.33;100.00;101877.88;5051227;28;19924;-59
2022/08/01 08:09:24;;;;;;;;;;;;;;;19.45;100.00;101870.84;5049261;28;19921;-59
2022/08/01 08:11:49;;;;;;;;;;;;;;;19.52;100.00;101872.16;5050756;28;20293;-59
2022/08/01 08:14:15;;;;;;;;;;;;;;;19.68;100.00;101880.06;5046115;28;20012;-59
2022/08/01 08:16:41;;;;;;;;;;;;;;;19.67;100.00;101881.03;5044980;28;19920;-59
2022/08/01 08:19:07;;;;;;;;;;;;;;;19.74;100.00;101890.38;5053350;28;19920;-59
2022/08/01 08:21:32;;;;;;;;;;;;;;;19.75;100.00;101884.06;5053003;28;19940;-59
2022/08/01 08:26:41;;;;;;;;;;;;;;;20.18;100.00;101884.81;5038604;28;19971;-59
2022/08/01 08:29:06;;;;;;;;;;;;;;;20.30;100.00;101883.97;5053805;28;19948;-58
2022/08/01 08:31:31;;;;;;;;;;;;;;;20.56;100.00;101890.22;5049569;28;19916;-62
2022/08/01 08:33:57;;;;;;;;;;;;;;;20.68;100.00;101887.59;5051843;28;19920;-58
2022/08/01 08:36:22;;;;;;;;;;;;;;;20.91;100.00;101888.72;5053594;28;20002;-58
2022/08/01 08:38:47;;;;;;;;;;;;;;;20.97;100.00;101887.41;5053357;28;19917;-59
2022/08/01 08:41:13;;;;;;;;;;;;;;;21.22;100.00;101892.69;5052595;28;19939;-59
2022/08/01 08:43:39;;;;;;;;;;;;;;;21.28;100.00;101888.72;5052404;28;19970;-59
2022/08/01 08:46:05;;;;;;;;;;;;;;;21.29;100.00;101895.78;5034924;28;19921;-59
2022/08/01 08:48:30;;;;;;;;;;;;;;;21.55;100.00;101902.00;5053673;28;19913;-59
2022/08/01 08:50:57;;;;;;;;;;;;;;;21.37;100.00;101900.63;5052730;28;19976;-59
2022/08/01 08:53:23;;;;;;;;;;;;;;;21.63;100.00;101911.34;5051605;28;19916;-58
2022/08/01 08:55:48;;;;;;;;;;;;;;;21.84;98.94;101908.84;5053027;28;19963;-58
2022/08/01 08:58:17;;;;;;;;;;;;;;;21.67;98.94;101905.59;5053370;28;20402;-59
2022/08/01 09:00:42;;;;;;;;;;;;;;;22.03;97.90;101911.00;5052849;28;20000;-58
2022/08/01 09:03:08;;;;;;;;;;;;;;;22.66;99.12;101899.84;5053411;28;20051;-58
2022/08/01 09:05:33;;;;;;;;;;;;;;;22.80;92.66;101909.56;5052449;28;19931;-58
2022/08/01 09:07:58;;;;;;;;;;;;;;;22.63;93.33;101909.06;5051995;28;20383;-58
2022/08/01 09:10:24;;;;;;;;;;;;;;;22.12;93.07;101915.69;5047880;28;20421;-58
2022/08/01 09:13:10;;;;;;;;;;;;;;;21.65;95.60;101912.06;5035162;28;19920;-58
2022/08/01 09:15:43;;;;;;;;;;;;;;;21.62;98.42;101920.41;5052357;28;19920;-58
2022/08/01 09:18:08;;;;;;;;;;;;;;;21.48;97.20;101934.88;5052666;28;19924;-58
2022/08/01 09:20:37;;;;;;;;;;;;;;;21.76;98.59;101918.41;5046935;28;19921;-59
2022/08/01 09:23:03;;;;;;;;;;;;;;;22.96;94.95;101915.44;5051737;28;19982;-59
2022/08/01 09:25:32;;;;;;;;;;;;;;;23.62;86.78;101922.72;5047558;28;20007;-56
2022/08/01 09:28:02;;;;;;;;;;;;;;;23.63;84.45;101921.75;5052023;28;20438;-51
2022/08/01 09:30:27;;;;;;;;;;;;;;;23.59;83.48;101924.81;5053509;28;20003;-59
2022/08/01 09:32:54;;;;;;;;;;;;;;;23.38;86.42;101931.88;5052675;28;20359;-59
2022/08/01 09:35:24;;;;;;;;;;;;;;;23.82;85.90;101931.00;5034349;28;19912;-59
2022/08/01 09:37:49;;;;;;;;;;;;;;;24.79;82.26;101930.00;5052302;28;19917;-59
2022/08/01 09:40:15;;;;;;;;;;;;;;;24.48;78.16;101925.38;5034717;28;19994;-58
2022/08/01 09:42:40;;;;;;;;;;;;;;;24.49;80.04;101931.66;5051450;28;19920;-58
2022/08/01 09:45:05;;;;;;;;;;;;;;;25.24;77.81;101929.56;5034371;28;19921;-58
2022/08/01 09:47:37;;;;;;;;;;;;;;;25.21;75.09;101929.84;5052262;28;19986;-59
2022/08/01 09:50:03;;;;;;;;;;;;;;;25.42;76.24;101931.66;5048887;28;19932;-59
2022/08/01 09:52:28;;;;;;;;;;;;;;;24.63;76.76;101936.72;5033494;28;19920;-59
2022/08/01 09:54:55;;;;;;;;;;;;;;;23.80;81.25;101944.66;5052078;28;20006;-59
2022/08/01 09:57:20;;;;;;;;;;;;;;;23.22;81.71;101937.69;5050617;28;19929;-58
2022/08/01 09:59:47;;;;;;;;;;;;;;;23.04;82.96;101939.13;5050807;28;19916;-59
2022/08/01 10:02:15;;;;;;;;;;;;;;;22.96;85.45;101942.47;5030622;28;19999;-59
2022/08/01 10:04:47;;;;;;;;;;;;;;;23.25;81.75;101944.69;5049791;28;19921;-58
2022/08/01 10:07:15;;;;;;;;;;;;;;;23.48;80.06;101942.81;5051975;28;20319;-59
2022/08/01 10:09:41;;;;;;;;;;;;;;;23.47;81.85;101945.63;5051124;28;19921;-58
2022/08/01 10:12:06;;;;;;;;;;;;;;;23.83;81.27;101940.84;5048933;28;19978;-58
2022/08/01 10:14:32;;;;;;;;;;;;;;;23.76;77.10;101937.81;5043972;28;20297;-59
2022/08/01 10:16:58;;;;;;;;;;;;;;;24.01;76.37;101933.91;5042195;28;20012;-59
2022/08/01 10:19:25;;;;;;;;;;;;;;;24.41;75.52;101935.03;5012619;28;20511;-58
2022/08/01 10:21:53;;;;;;;;;;;;;;;24.81;76.52;101930.69;5046168;28;19960;-58
2022/08/01 10:24:22;;;;;;;;;;;;;;;25.24;71.89;101939.56;5051678;28;20299;-59
2022/08/01 10:26:48;;;;;;;;;;;;;;;25.57;71.12;101934.81;5051968;28;19921;-58
2022/08/01 10:29:16;;;;;;;;;;;;;;;26.14;69.12;101941.28;5051759;28;19957;-59
2022/08/01 10:31:41;;;;;;;;;;;;;;;26.21;67.04;101937.97;5051229;28;19944;-59
2022/08/01 10:34:07;;;;;;;;;;;;;;;25.92;66.59;101947.84;5049376;28;19971;-59
2022/08/01 10:36:33;;;;;;;;;;;;;;;26.32;68.40;101944.09;5031545;28;19929;-60
2022/08/01 10:38:58;;;;;;;;;;;;;;;26.12;63.86;101939.69;5044819;28;19948;-60
2022/08/01 10:41:25;;;;;;;;;;;;;;;25.56;65.09;101939.38;5069997;28;19959;-59
2022/08/01 10:43:51;;;;;;;;;;;;;;;25.23;67.01;101943.25;5057588;28;19923;-58
2022/08/01 10:46:17;;;;;;;;;;;;;;;25.09;67.99;101944.50;5051596;28;20003;-58
2022/08/01 10:48:54;;;;;;;;;;;;;;;24.67;67.79;101949.03;5052088;28;19917;-58
2022/08/01 10:51:21;;;;;;;;;;;;;;;24.09;68.95;101944.06;5052223;28;19913;-58
2022/08/01 10:53:47;;;;;;;;;;;;;;;23.86;69.73;101951.41;5051594;28;19921;-58
2022/08/01 10:56:13;;;;;;;;;;;;;;;24.00;71.86;101940.31;5051663;28;20409;-58
2022/08/01 10:58:41;;;;;;;;;;;;;;;24.67;68.62;101951.75;5051830;28;19927;-59
2022/08/01 11:01:21;;;;;;;;;;;;;;;25.31;69.72;101949.72;5051721;28;19913;-59
2022/08/01 11:03:56;;;;;;;;;;;;;;;24.82;63.96;101952.25;5051635;28;19924;-58
2022/08/01 11:06:25;;;;;;;;;;;;;;;24.43;68.25;101948.44;5031876;28;19970;-58
2022/08/01 11:08:51;;;;;;;;;;;;;;;24.67;66.51;101961.75;5032124;28;19952;-58
2022/08/01 11:11:16;;;;;;;;;;;;;;;25.47;65.74;101967.34;5031668;28;19921;-58
2022/08/01 11:14:00;;;;;;;;;;;;;;;25.26;60.46;101962.81;5031912;28;19918;-59
2022/08/01 11:16:29;;;;;;;;;;;;;;;25.66;60.21;101966.50;5048842;28;20490;-58
2022/08/01 11:18:54;;;;;;;;;;;;;;;26.05;60.76;101960.25;5055623;28;19917;-58
2022/08/01 11:21:23;;;;;;;;;;;;;;;26.42;58.16;101962.22;5055663;28;20494;-59
2022/08/01 11:23:49;;;;;;;;;;;;;;;27.23;52.92;101967.13;5054709;28;19913;-57
2022/08/01 11:26:15;;;;;;;;;;;;;;;27.46;49.07;101951.25;5045220;28;20395;-58
2022/08/01 11:28:41;;;;;;;;;;;;;;;27.45;49.11;101954.97;5035501;28;19928;-58
2022/08/01 11:31:06;;;;;;;;;;;;;;;27.77;50.98;101961.78;5047322;28;19923;-59
2022/08/01 11:33:47;;;;;;;;;;;;;;;27.52;44.01;101966.13;5035465;28;20281;-58
2022/08/01 11:36:12;;;;;;;;;;;;;;;26.99;46.65;101960.34;5046392;28;19924;-58
2022/08/01 11:38:41;;;;;;;;;;;;;;;27.46;43.26;101959.41;5055205;28;19916;-59
2022/08/01 11:41:10;;;;;;;;;;;;;;;27.34;44.30;101951.59;5055243;28;19913;-59
2022/08/01 11:43:35;;;;;;;;;;;;;;;27.84;42.62;101956.59;5055148;28;19927;-58
2022/08/01 11:46:01;;;;;;;;;;;;;;;27.36;42.14;101946.88;5036786;28;19912;-58
2022/08/01 11:48:28;;;;;;;;;;;;;;;26.51;45.07;101950.50;5058489;28;20039;-58
2022/08/01 11:50:57;;;;;;;;;;;;;;;27.02;43.61;101955.63;5075062;28;19917;-58
2022/08/01 11:53:22;;;;;;;;;;;;;;;27.50;43.72;101950.97;5074798;28;20015;-58
2022/08/01 11:55:52;;;;;;;;;;;;;;;27.83;41.01;101954.00;5074661;28;20003;-58
2022/08/01 11:58:21;;;;;;;;;;;;;;;27.50;40.66;101954.53;5058189;28;19925;-58
2022/08/01 12:00:53;;;;;;;;;;;;;;;27.15;41.07;101962.44;5054855;28;20388;-58
2022/08/01 12:03:29;;;;;;;;;;;;;;;27.29;42.49;101961.06;5036764;28;20011;-58
2022/08/01 12:05:55;;;;;;;;;;;;;;;26.70;42.17;101963.16;5054619;28;19924;-59
2022/08/01 12:08:27;;;;;;;;;;;;;;;26.57;43.80;101958.03;5054345;28;19923;-58
2022/08/01 12:10:52;;;;;;;;;;;;;;;27.08;43.60;101960.47;5054942;28;19962;-59
2022/08/01 12:13:18;;;;;;;;;;;;;;;26.58;44.89;101967.06;5054527;28;19921;-58
2022/08/01 12:15:44;;;;;;;;;;;;;;;26.58;43.57;101967.91;5036536;28;20477;-59
2022/08/01 12:18:09;;;;;;;;;;;;;;;26.79;45.22;101972.31;5053801;28;19917;-59
2022/08/01 12:20:35;;;;;;;;;;;;;;;26.89;43.70;101973.13;5054546;28;19917;-59
2022/08/01 12:23:06;;;;;;;;;;;;;;;26.90;42.10;101963.97;5054297;28;19913;-58
2022/08/01 12:25:31;;;;;;;;;;;;;;;26.46;41.67;101975.38;5070762;28;19909;-58
2022/08/01 12:27:59;;;;;;;;;;;;;;;25.91;41.41;101973.25;5073237;28;19916;-58
2022/08/01 12:30:25;;;;;;;;;;;;;;;25.95;43.14;101971.13;5053579;28;20368;-59